Time;durP1;ratioP1;P1;durP2;ratioP2;P2;SDS_P1;SDS_P2;PMS_P1;PMS_P2;Temp;Humidity;BMP_temperature;BMP_pressure;BME280_temperature;BME280_humidity;BME280_pressure;Samples;Min_cycle;Max_cycle;Signal;HPM_P1;HPM_P2
2021/07/25 00:00:35;;;;;;;24.13;21.63;;;;;;;20.40;100.00;100053.09;4939765;28;20226;-73
2021/07/25 00:03:03;;;;;;;24.65;22.05;;;;;;;20.28;100.00;100055.91;4931796;29;20696;-72
2021/07/25 00:05:29;;;;;;;23.95;21.45;;;;;;;20.39;100.00;100047.97;4949747;28;20641;-73
2021/07/25 00:07:59;;;;;;;22.67;20.38;;;;;;;20.33;100.00;100044.66;4939512;29;20187;-73
2021/07/25 00:10:28;;;;;;;23.15;21.00;;;;;;;20.20;100.00;100034.81;4949865;28;20698;-73
2021/07/25 00:12:54;;;;;;;23.90;21.60;;;;;;;20.24;100.00;100040.44;4933720;29;20211;-73
2021/07/25 00:15:20;;;;;;;23.13;20.77;;;;;;;20.30;100.00;100039.03;4948631;28;20278;-74
2021/07/25 00:17:46;;;;;;;24.45;21.98;;;;;;;20.31;100.00;100035.09;4934073;29;20218;-71
2021/07/25 00:20:14;;;;;;;24.65;22.15;;;;;;;20.36;100.00;100034.84;4917674;28;20227;-73
2021/07/25 00:22:39;;;;;;;24.77;22.27;;;;;;;20.36;100.00;100026.56;4918866;29;20183;-73
2021/07/25 00:25:14;;;;;;;25.50;23.02;;;;;;;20.37;100.00;100028.19;4921664;29;20278;-74
2021/07/25 00:27:41;;;;;;;24.63;22.20;;;;;;;20.53;100.00;100022.38;4920305;29;20274;-73
2021/07/25 00:30:14;;;;;;;25.60;22.90;;;;;;;20.61;100.00;100018.63;4920799;28;20274;-74
2021/07/25 00:32:39;;;;;;;26.75;24.05;;;;;;;20.61;100.00;100013.09;4937591;29;20190;-74
2021/07/25 00:35:06;;;;;;;28.13;25.15;;;;;;;20.58;100.00;100004.72;4934309;29;20212;-75
2021/07/25 00:37:33;;;;;;;25.58;23.05;;;;;;;20.56;100.00;100009.81;4917746;29;20623;-74
2021/07/25 00:40:01;;;;;;;26.48;23.00;;;;;;;20.60;100.00;100006.00;4931602;29;20192;-74
2021/07/25 00:42:37;;;;;;;26.65;23.80;;;;;;;20.48;100.00;100008.81;4948891;28;20238;-73
2021/07/25 00:45:07;;;;;;;25.55;23.05;;;;;;;20.37;100.00;100006.13;4922293;29;20813;-74
2021/07/25 00:47:41;;;;;;;25.02;22.58;;;;;;;20.37;100.00;100000.59;4934436;29;20839;-74
2021/07/25 00:50:07;;;;;;;24.50;22.10;;;;;;;20.43;100.00;99995.25;4951936;28;20187;-73
2021/07/25 00:52:36;;;;;;;24.58;22.20;;;;;;;20.41;100.00;99995.97;4937012;29;20542;-74
2021/07/25 00:55:04;;;;;;;24.35;21.95;;;;;;;20.31;100.00;99982.69;4937441;29;20597;-73
2021/07/25 00:57:32;;;;;;;25.40;22.83;;;;;;;20.55;100.00;99997.97;4932828;28;20227;-72
2021/07/25 01:00:03;;;;;;;25.58;23.05;;;;;;;20.34;100.00;99995.78;4947132;29;20207;-76
2021/07/25 01:02:29;;;;;;;24.95;22.35;;;;;;;20.45;100.00;100008.72;4936629;28;20701;-75
2021/07/25 01:05:13;;;;;;;25.48;22.98;;;;;;;20.44;100.00;100010.66;4923558;29;20274;-72
2021/07/25 01:07:58;;;;;;;26.25;23.52;;;;;;;20.53;100.00;100021.53;4933156;29;20612;-73
2021/07/25 01:10:30;;;;;;;26.17;23.48;;;;;;;20.53;100.00;100021.53;4964993;28;20301;-73
2021/07/25 01:13:02;;;;;;;27.67;24.52;;;;;;;20.38;100.00;100024.25;4935630;29;20176;-73
2021/07/25 01:15:31;;;;;;;26.08;23.27;;;;;;;20.27;100.00;100012.13;4927827;28;20223;-73
2021/07/25 01:17:59;;;;;;;26.30;23.73;;;;;;;20.33;100.00;100016.22;4914419;29;20264;-73
2021/07/25 01:20:24;;;;;;;24.88;22.52;;;;;;;20.27;100.00;100028.69;4959864;28;20627;-73
2021/07/25 01:22:54;;;;;;;24.70;22.27;;;;;;;20.13;100.00;100017.25;4921002;29;20179;-74
2021/07/25 01:25:21;;;;;;;25.08;22.67;;;;;;;20.04;100.00;100016.59;4922222;28;20207;-73
2021/07/25 01:28:08;;;;;;;26.05;23.45;;;;;;;20.09;100.00;100032.88;4934041;29;20219;-73
2021/07/25 01:30:36;;;;;;;25.83;23.23;;;;;;;20.12;100.00;100027.47;4949272;28;20258;-73
2021/07/25 01:33:04;;;;;;;25.30;22.63;;;;;;;20.09;100.00;100021.84;4937580;29;20207;-73
2021/07/25 01:35:31;;;;;;;24.08;21.58;;;;;;;20.03;100.00;100019.69;4922676;28;20228;-73
2021/07/25 01:37:57;;;;;;;24.30;21.75;;;;;;;20.05;100.00;100015.41;4935816;29;20179;-74
2021/07/25 01:40:24;;;;;;;24.85;22.30;;;;;;;20.12;100.00;100019.19;4948086;28;20241;-74
2021/07/25 01:42:52;;;;;;;24.30;21.77;;;;;;;20.05;100.00;100026.44;4921920;29;20196;-74
2021/07/25 01:45:18;;;;;;;25.42;22.35;;;;;;;20.11;100.00;100025.06;4925045;28;20207;-73
2021/07/25 01:47:43;;;;;;;23.17;20.92;;;;;;;20.19;100.00;100021.38;4917834;29;20184;-74
2021/07/25 01:50:13;;;;;;;25.77;23.00;;;;;;;20.18;100.00;100028.84;4941573;28;20183;-73
2021/07/25 01:52:39;;;;;;;25.60;22.85;;;;;;;20.16;100.00;100027.56;4936704;29;20661;-73
2021/07/25 01:55:07;;;;;;;24.95;22.38;;;;;;;20.20;100.00;100029.28;4928504;29;20203;-74
2021/07/25 01:57:32;;;;;;;26.15;23.60;;;;;;;20.41;100.00;100015.28;4932082;29;20223;-74
2021/07/25 02:00:00;;;;;;;26.00;23.33;;;;;;;20.14;100.00;100029.88;4939137;28;20183;-73
2021/07/25 02:02:26;;;;;;;25.48;22.88;;;;;;;20.12;100.00;100032.97;4951597;29;20234;-74
2021/07/25 02:04:54;;;;;;;26.02;23.23;;;;;;;20.08;100.00;100037.59;4947926;28;20214;-75
2021/07/25 02:07:19;;;;;;;26.63;24.02;;;;;;;19.99;100.00;100047.16;4932124;29;20231;-74
2021/07/25 02:09:47;;;;;;;25.45;22.83;;;;;;;19.95;100.00;100057.28;4936278;29;20198;-74
2021/07/25 02:12:15;;;;;;;26.40;23.65;;;;;;;19.96;100.00;100061.63;4924952;29;20310;-74
2021/07/25 02:14:43;;;;;;;25.20;22.80;;;;;;;20.08;100.00;100064.38;4932904;29;20302;-74
2021/07/25 02:17:13;;;;;;;26.30;23.75;;;;;;;20.09;100.00;100066.78;4916407;29;20609;-74
2021/07/25 02:19:39;;;;;;;26.77;24.17;;;;;;;20.02;100.00;100064.94;4932677;29;20183;-74
2021/07/25 02:22:05;;;;;;;28.63;25.73;;;;;;;19.94;100.00;100069.44;4913027;29;20599;-74
2021/07/25 02:24:31;;;;;;;26.13;23.48;;;;;;;19.88;100.00;100081.88;4929115;29;20298;-75
2021/07/25 02:26:56;;;;;;;28.67;25.77;;;;;;;19.93;100.00;100076.13;4916813;29;20223;-74
2021/07/25 02:29:22;;;;;;;30.02;26.10;;;;;;;20.10;100.00;100076.66;4917026;29;20203;-74
2021/07/25 02:31:52;;;;;;;26.75;24.13;;;;;;;20.03;100.00;100072.88;4931738;29;20230;-74
2021/07/25 02:34:17;;;;;;;30.17;27.10;;;;;;;20.12;100.00;100081.84;4948819;28;20629;-75
2021/07/25 02:36:45;;;;;;;29.38;26.27;;;;;;;20.20;100.00;100073.44;4931673;29;20226;-74
2021/07/25 02:39:11;;;;;;;27.67;24.95;;;;;;;20.26;100.00;100069.25;4920668;29;20198;-74
2021/07/25 02:41:38;;;;;;;28.67;25.75;;;;;;;20.24;100.00;100079.06;4936498;29;20223;-74
2021/07/25 02:44:05;;;;;;;30.02;26.83;;;;;;;20.24;100.00;100082.59;4916692;29;20203;-74
2021/07/25 02:46:36;;;;;;;29.95;26.70;;;;;;;20.19;100.00;100082.06;4909553;28;20223;-74
2021/07/25 02:49:04;;;;;;;30.80;27.50;;;;;;;20.10;100.00;100087.69;4933495;29;20202;-75
2021/07/25 02:51:31;;;;;;;32.25;28.85;;;;;;;20.00;100.00;100095.66;4931602;29;20236;-75
2021/07/25 02:54:00;;;;;;;32.03;28.65;;;;;;;20.13;100.00;100092.53;4934075;29;20207;-74
2021/07/25 02:56:28;;;;;;;32.45;28.92;;;;;;;20.20;100.00;100089.97;4938614;29;20230;-74
2021/07/25 02:58:54;;;;;;;31.30;28.00;;;;;;;19.98;100.00;100097.97;4938782;29;20190;-74
2021/07/25 03:01:19;;;;;;;30.00;26.80;;;;;;;20.01;100.00;100097.25;4929310;29;20215;-74
2021/07/25 03:03:49;;;;;;;32.63;28.50;;;;;;;19.97;100.00;100096.34;4919950;29;20188;-74
2021/07/25 03:06:17;;;;;;;33.47;29.10;;;;;;;19.98;100.00;100092.44;4927913;29;20250;-73
2021/07/25 03:08:43;;;;;;;32.58;29.08;;;;;;;19.95;100.00;100103.38;4938152;29;20195;-73
2021/07/25 03:11:09;;;;;;;34.58;29.63;;;;;;;19.82;100.00;100108.09;4948816;28;20694;-75
2021/07/25 03:13:35;;;;;;;35.30;31.08;;;;;;;19.72;100.00;100116.81;4903696;29;20262;-74
2021/07/25 03:16:04;;;;;;;38.60;31.30;;;;;;;19.78;100.00;100120.94;4924700;29;20250;-74
2021/07/25 03:18:30;;;;;;;39.17;33.45;;;;;;;19.70;100.00;100124.59;4939748;29;20210;-74
2021/07/25 03:21:00;;;;;;;36.38;31.58;;;;;;;19.72;100.00;100121.47;4920168;29;20224;-74
2021/07/25 03:23:26;;;;;;;38.17;32.22;;;;;;;19.62;100.00;100116.44;4935782;29;20180;-72
2021/07/25 03:25:51;;;;;;;37.65;33.50;;;;;;;19.62;100.00;100121.97;4921250;29;20227;-73
2021/07/25 03:28:19;;;;;;;40.95;35.22;;;;;;;19.77;100.00;100127.56;4954041;29;20190;-72
2021/07/25 03:30:46;;;;;;;45.05;35.80;;;;;;;19.70;100.00;100124.59;4953737;28;20233;-73
2021/07/25 03:33:12;;;;;;;41.15;33.88;;;;;;;19.59;100.00;100127.34;4919949;29;20609;-74
2021/07/25 03:35:37;;;;;;;42.70;34.95;;;;;;;19.62;100.00;100127.47;4919012;28;20223;-74
2021/07/25 03:38:05;;;;;;;41.47;34.65;;;;;;;19.66;100.00;100133.09;4936988;29;20191;-74
2021/07/25 03:40:31;;;;;;;40.72;33.80;;;;;;;19.64;100.00;100129.88;4953956;28;20290;-74
2021/07/25 03:42:57;;;;;;;42.55;35.42;;;;;;;19.67;100.00;100135.53;4910082;29;20182;-72
2021/07/25 03:45:23;;;;;;;39.33;35.08;;;;;;;19.73;100.00;100134.13;4919466;28;20246;-73
2021/07/25 03:47:48;;;;;;;42.00;35.75;;;;;;;19.95;100.00;100136.47;4931043;29;20263;-73
2021/07/25 03:50:19;;;;;;;42.78;34.83;;;;;;;19.75;100.00;100132.63;4950288;28;20192;-73
2021/07/25 03:52:44;;;;;;;43.63;36.22;;;;;;;19.84;100.00;100136.13;4948818;29;20183;-73
2021/07/25 03:55:10;;;;;;;43.55;36.65;;;;;;;19.66;100.00;100127.59;4937305;28;20231;-74
2021/07/25 03:57:38;;;;;;;47.67;37.78;;;;;;;19.65;100.00;100132.31;4922721;29;20184;-73
2021/07/25 04:00:04;;;;;;;44.35;36.38;;;;;;;19.81;100.00;100120.25;4900188;29;20216;-73
2021/07/25 04:02:34;;;;;;;44.63;36.30;;;;;;;20.01;100.00;100119.31;4936917;29;20595;-73
2021/07/25 04:05:00;;;;;;;46.67;36.10;;;;;;;19.87;100.00;100129.09;4952838;28;20207;-73
2021/07/25 04:07:25;;;;;;;44.92;36.67;;;;;;;19.82;100.00;100121.06;4943343;28;20228;-73
2021/07/25 04:09:51;;;;;;;45.17;35.72;;;;;;;19.86;100.00;100124.75;4918427;29;20191;-74
2021/07/25 04:12:20;;;;;;;42.88;34.85;;;;;;;19.86;100.00;100130.25;4934385;29;20231;-73
2021/07/25 04:14:48;;;;;;;45.83;35.75;;;;;;;19.93;100.00;100138.75;4950278;28;20231;-73
2021/07/25 04:17:15;;;;;;;46.45;37.78;;;;;;;20.12;100.00;100134.25;4921244;29;20237;-73
2021/07/25 04:19:41;;;;;;;49.45;38.45;;;;;;;20.10;100.00;100139.31;4934160;29;20729;-74
2021/07/25 04:22:11;;;;;;;48.08;37.45;;;;;;;20.07;100.00;100142.75;4922228;29;20207;-74
2021/07/25 04:24:39;;;;;;;43.47;36.83;;;;;;;20.16;100.00;100146.19;4921929;29;20700;-75
2021/07/25 04:27:05;;;;;;;44.40;37.40;;;;;;;20.26;100.00;100134.69;4917772;29;20230;-75
2021/07/25 04:29:31;;;;;;;41.00;35.47;;;;;;;20.28;100.00;100137.91;4933670;29;20196;-74
2021/07/25 04:31:59;;;;;;;42.28;36.50;;;;;;;20.36;100.00;100137.75;4932281;29;20685;-74
2021/07/25 04:34:25;;;;;;;40.35;34.47;;;;;;;20.25;100.00;100144.91;4933672;29;20215;-74
2021/07/25 04:36:54;;;;;;;45.30;36.40;;;;;;;20.32;100.00;100138.81;4949763;28;20310;-75
2021/07/25 04:39:25;;;;;;;40.28;34.80;;;;;;;20.11;100.00;100146.44;4922330;29;20250;-74
2021/07/25 04:41:52;;;;;;;40.80;35.60;;;;;;;20.42;100.00;100152.09;4945540;28;20211;-74
2021/07/25 04:44:39;;;;;;;46.15;36.72;;;;;;;20.52;100.00;100155.19;4933633;29;20685;-75
2021/07/25 04:47:05;;;;;;;39.90;34.10;;;;;;;20.55;100.00;100152.53;4903389;29;20231;-75
2021/07/25 04:49:37;;;;;;;44.13;34.83;;;;;;;20.54;100.00;100156.44;4952688;28;20599;-74
2021/07/25 04:52:06;;;;;;;42.03;35.28;;;;;;;20.47;100.00;100153.50;4921194;29;20246;-75
2021/07/25 04:54:37;;;;;;;41.83;34.92;;;;;;;20.66;100.00;100150.94;4917831;29;20629;-75
2021/07/25 04:57:04;;;;;;;41.85;35.35;;;;;;;20.76;100.00;100158.69;4902584;29;20231;-74
2021/07/25 04:59:44;;;;;;;40.55;35.00;;;;;;;20.78;100.00;100161.91;4902416;29;20191;-74
2021/07/25 05:02:14;;;;;;;39.80;34.20;;;;;;;20.63;100.00;100165.41;4933023;29;20230;-75
2021/07/25 05:04:40;;;;;;;40.95;34.00;;;;;;;20.86;100.00;100166.50;4914476;29;20256;-74
2021/07/25 05:07:07;;;;;;;39.42;33.80;;;;;;;20.62;100.00;100166.59;4898297;29;20228;-75
2021/07/25 05:09:33;;;;;;;38.42;33.50;;;;;;;20.83;100.00;100169.97;4934625;29;20190;-75
2021/07/25 05:12:17;;;;;;;40.22;33.53;;;;;;;21.02;100.00;100167.34;4926528;29;20218;-74
2021/07/25 05:15:06;;;;;;;36.85;32.95;;;;;;;20.98;100.00;100174.72;4932955;29;20215;-74
2021/07/25 05:17:59;;;;;;;36.65;32.05;;;;;;;20.70;100.00;100182.19;4934394;29;20621;-73
2021/07/25 05:20:35;;;;;;;35.95;32.05;;;;;;;20.81;100.00;100183.31;4947136;28;20242;-74
2021/07/25 05:23:18;;;;;;;40.45;31.90;;;;;;;21.04;100.00;100170.53;4932993;29;20739;-74
2021/07/25 05:25:50;;;;;;;34.67;31.15;;;;;;;20.92;100.00;100168.66;4948562;28;20235;-73
2021/07/25 05:28:20;;;;;;;37.13;33.13;;;;;;;21.23;100.00;100169.53;4938154;29;20238;-73
2021/07/25 05:30:53;;;;;;;37.10;32.00;;;;;;;21.25;100.00;100189.31;4920376;29;20299;-73
2021/07/25 05:33:21;;;;;;;36.88;31.80;;;;;;;21.23;100.00;100186.09;4946545;29;20214;-74
2021/07/25 05:35:50;;;;;;;37.35;33.28;;;;;;;21.17;100.00;100191.44;4901062;29;20226;-74
2021/07/25 05:38:16;;;;;;;40.80;34.15;;;;;;;21.07;100.00;100186.44;4920991;29;20202;-75
2021/07/25 05:40:41;;;;;;;39.33;32.45;;;;;;;21.07;100.00;100187.22;4935969;29;20242;-74
2021/07/25 05:43:07;;;;;;;39.42;33.58;;;;;;;21.22;100.00;100191.19;4935711;29;20574;-75
2021/07/25 05:45:37;;;;;;;36.17;32.28;;;;;;;20.99;100.00;100190.94;4918843;29;20222;-74
2021/07/25 05:48:03;;;;;;;41.13;33.90;;;;;;;21.13;100.00;100190.53;4933772;29;20335;-73
2021/07/25 05:50:31;;;;;;;39.58;32.92;;;;;;;21.37;100.00;100191.22;4951575;28;20222;-73
2021/07/25 05:53:02;;;;;;;39.58;33.72;;;;;;;21.30;100.00;100196.56;4952577;29;20190;-73
2021/07/25 05:55:32;;;;;;;38.78;32.90;;;;;;;21.20;100.00;100197.06;4913786;29;20228;-73
2021/07/25 05:58:00;;;;;;;35.42;31.65;;;;;;;21.52;100.00;100191.28;4898258;29;20184;-74
2021/07/25 06:00:27;;;;;;;35.88;31.30;;;;;;;21.37;100.00;100207.78;4950164;28;20857;-73
2021/07/25 06:02:54;;;;;;;36.80;32.90;;;;;;;21.32;100.00;100206.09;4952053;29;20175;-73
2021/07/25 06:05:20;;;;;;;34.28;30.67;;;;;;;21.26;100.00;100204.75;4934398;28;20212;-73
2021/07/25 06:07:46;;;;;;;35.67;31.80;;;;;;;21.53;100.00;100201.16;4915718;29;20204;-74
2021/07/25 06:10:11;;;;;;;35.50;31.58;;;;;;;21.51;100.00;100191.63;4916909;29;20198;-74
2021/07/25 06:12:40;;;;;;;36.65;32.38;;;;;;;21.60;100.00;100193.06;4905691;29;20200;-73
2021/07/25 06:15:06;;;;;;;37.50;31.88;;;;;;;21.71;100.00;100191.38;4932842;29;20646;-74
2021/07/25 06:17:36;;;;;;;35.60;31.13;;;;;;;21.97;100.00;100195.19;4917006;29;20215;-73
2021/07/25 06:20:05;;;;;;;34.60;30.85;;;;;;;21.76;100.00;100199.41;4916441;29;20234;-74
2021/07/25 06:22:40;;;;;;;34.28;29.88;;;;;;;21.26;100.00;100196.47;4916861;29;20223;-73
2021/07/25 06:25:06;;;;;;;31.67;28.30;;;;;;;21.54;100.00;100196.44;4913427;29;20206;-75
2021/07/25 06:27:32;;;;;;;32.30;28.42;;;;;;;22.17;100.00;100189.41;4935324;28;20235;-74
2021/07/25 06:29:57;;;;;;;33.30;29.70;;;;;;;22.25;100.00;100196.72;4919385;29;20275;-74
2021/07/25 06:32:23;;;;;;;33.15;29.05;;;;;;;22.47;100.00;100196.03;4936230;29;20283;-74
2021/07/25 06:34:54;;;;;;;31.58;28.17;;;;;;;22.18;100.00;100190.22;4946649;28;20218;-74
2021/07/25 06:37:24;;;;;;;32.03;27.33;;;;;;;22.47;100.00;100201.56;4970901;28;20227;-74
2021/07/25 06:39:49;;;;;;;31.15;27.85;;;;;;;22.50;100.00;100203.63;4930956;29;20202;-74
2021/07/25 06:42:17;;;;;;;29.75;26.35;;;;;;;22.51;100.00;100205.25;4919324;29;20223;-75
2021/07/25 06:44:45;;;;;;;29.73;25.85;;;;;;;22.53;100.00;100208.44;4927510;29;20203;-75
2021/07/25 06:47:13;;;;;;;29.30;26.20;;;;;;;22.84;100.00;100204.41;4938531;29;20254;-74
2021/07/25 06:49:39;;;;;;;27.45;24.65;;;;;;;22.68;100.00;100207.59;4935680;29;20188;-73
2021/07/25 06:52:05;;;;;;;27.65;24.85;;;;;;;22.68;100.00;100213.13;4934853;29;20215;-73
2021/07/25 06:54:32;;;;;;;28.48;25.45;;;;;;;22.81;100.00;100220.94;4934393;29;20212;-74
2021/07/25 06:56:58;;;;;;;27.02;24.10;;;;;;;22.81;100.00;100218.97;4934832;28;20223;-74
2021/07/25 06:59:24;;;;;;;24.38;21.88;;;;;;;22.82;100.00;100222.56;4888040;29;20196;-75
2021/07/25 07:01:49;;;;;;;25.75;23.02;;;;;;;22.76;100.00;100218.44;4936786;28;20623;-73
2021/07/25 07:04:15;;;;;;;27.27;24.38;;;;;;;22.99;100.00;100222.94;4935952;29;20206;-72
2021/07/25 07:06:40;;;;;;;26.27;23.08;;;;;;;22.62;100.00;100233.94;4954013;28;20625;-72
2021/07/25 07:09:06;;;;;;;25.35;22.80;;;;;;;22.69;100.00;100225.81;4954442;28;20206;-74
2021/07/25 07:11:34;;;;;;;25.17;22.48;;;;;;;22.76;100.00;100224.00;4919078;29;20227;-72
2021/07/25 07:14:04;;;;;;;24.33;21.75;;;;;;;22.73;100.00;100226.69;4948277;29;20213;-73
2021/07/25 07:16:32;;;;;;;25.27;20.80;;;;;;;22.75;100.00;100224.38;4919609;29;20231;-74
2021/07/25 07:18:57;;;;;;;22.65;20.35;;;;;;;22.68;100.00;100229.75;4936631;29;20187;-73
2021/07/25 07:21:25;;;;;;;22.02;19.83;;;;;;;22.75;100.00;100224.38;4919357;29;20231;-74
2021/07/25 07:23:50;;;;;;;22.23;19.83;;;;;;;22.69;100.00;100228.56;4936948;29;20598;-74
2021/07/25 07:26:19;;;;;;;21.73;18.92;;;;;;;22.67;100.00;100231.69;4933437;28;20610;-74
2021/07/25 07:28:44;;;;;;;21.25;18.98;;;;;;;22.53;100.00;100236.94;4970184;28;20187;-73
2021/07/25 07:31:10;;;;;;;19.90;17.90;;;;;;;22.72;100.00;100227.84;4941576;29;20645;-73
2021/07/25 07:33:35;;;;;;;19.38;17.27;;;;;;;23.02;100.00;100235.28;4935791;29;20223;-74
2021/07/25 07:36:04;;;;;;;19.27;17.13;;;;;;;22.96;100.00;100228.41;4905282;28;20278;-74
2021/07/25 07:38:32;;;;;;;18.95;16.90;;;;;;;22.73;100.00;100235.00;4934481;29;20202;-74
2021/07/25 07:40:57;;;;;;;19.33;16.35;;;;;;;22.90;100.00;100230.66;4933324;29;20219;-73
2021/07/25 07:43:26;;;;;;;19.63;15.93;;;;;;;23.06;100.00;100230.59;4935042;29;20184;-73
2021/07/25 07:45:54;;;;;;;16.75;15.15;;;;;;;23.11;100.00;100228.34;4942791;28;20227;-73
2021/07/25 07:48:25;;;;;;;19.08;17.17;;;;;;;23.36;100.00;100227.66;4954946;28;20183;-73
2021/07/25 07:50:53;;;;;;;19.45;17.42;;;;;;;23.60;100.00;100228.16;4935016;28;20239;-74
2021/07/25 07:53:21;;;;;;;18.13;15.45;;;;;;;23.10;100.00;100234.28;4950977;28;20578;-73
2021/07/25 07:55:49;;;;;;;16.70;15.10;;;;;;;23.52;100.00;100228.38;4940198;28;20223;-74
2021/07/25 07:58:17;;;;;;;17.60;15.73;;;;;;;23.55;100.00;100229.63;4953688;28;20191;-74
2021/07/25 08:00:45;;;;;;;17.50;15.77;;;;;;;23.90;100.00;100220.81;4932852;29;20282;-73
2021/07/25 08:03:11;;;;;;;16.65;14.95;;;;;;;23.96;100.00;100225.66;4935194;29;20187;-74
2021/07/25 08:05:36;;;;;;;17.67;15.82;;;;;;;24.02;100.00;100224.16;4922407;29;20230;-79
2021/07/25 08:08:02;;;;;;;16.15;14.48;;;;;;;23.56;100.00;100231.22;4958168;29;20187;-77
2021/07/25 08:10:28;;;;;;;15.95;14.35;;;;;;;23.91;100.00;100230.72;4938073;29;20592;-79
2021/07/25 08:12:58;;;;;;;16.70;14.93;;;;;;;24.05;100.00;100231.75;4906816;29;20192;-78
2021/07/25 08:15:26;;;;;;;15.75;14.18;;;;;;;24.33;100.00;100231.47;4935315;28;20754;-78
2021/07/25 08:17:52;;;;;;;14.98;13.52;;;;;;;24.32;100.00;100235.41;4969583;28;20191;-77
2021/07/25 08:20:17;;;;;;;14.82;13.38;;;;;;;24.41;100.00;100226.44;4937484;28;20177;-76
2021/07/25 08:22:45;;;;;;;15.40;13.85;;;;;;;24.37;100.00;100230.31;4920023;29;20543;-77
2021/07/25 08:25:11;;;;;;;15.25;13.55;;;;;;;24.54;100.00;100219.50;4934863;28;20708;-78
2021/07/25 08:27:39;;;;;;;13.98;12.60;;;;;;;24.61;100.00;100229.91;4955153;28;20667;-79
2021/07/25 08:30:08;;;;;;;13.23;11.93;;;;;;;24.98;100.00;100235.25;4947330;28;20179;-75
2021/07/25 08:32:34;;;;;;;12.10;10.93;;;;;;;24.64;97.36;100235.50;4936024;29;20202;-76
2021/07/25 08:34:59;;;;;;;12.20;10.80;;;;;;;24.59;100.00;100237.81;4928979;29;20219;-77
2021/07/25 08:37:25;;;;;;;13.18;11.95;;;;;;;24.55;100.00;100232.19;4943943;28;20219;-75
2021/07/25 08:39:51;;;;;;;13.23;11.98;;;;;;;24.63;97.71;100228.34;4899180;29;20204;-76
2021/07/25 08:42:19;;;;;;;10.95;10.00;;;;;;;24.72;96.55;100234.44;4934311;29;20299;-74
2021/07/25 08:44:49;;;;;;;10.88;9.85;;;;;;;25.00;93.90;100237.63;4917308;29;20204;-74
2021/07/25 08:47:26;;;;;;;10.98;9.73;;;;;;;24.74;99.35;100234.84;4936655;29;20289;-75
2021/07/25 08:50:02;;;;;;;11.32;10.27;;;;;;;24.88;98.12;100230.28;4968947;28;20241;-74
2021/07/25 08:52:28;;;;;;;11.13;10.02;;;;;;;25.24;94.43;100226.81;4935635;29;20257;-76
2021/07/25 08:54:55;;;;;;;11.38;10.10;;;;;;;24.89;94.50;100231.91;4948822;28;20224;-74
2021/07/25 08:57:25;;;;;;;12.43;11.07;;;;;;;25.15;93.98;100227.09;4943075;29;20699;-75
2021/07/25 08:59:54;;;;;;;11.10;10.00;;;;;;;25.49;95.02;100236.25;4920870;29;20198;-74
2021/07/25 09:02:27;;;;;;;10.93;9.88;;;;;;;25.76;90.46;100238.56;4926715;29;20223;-74
2021/07/25 09:04:57;;;;;;;10.88;9.70;;;;;;;25.52;88.84;100233.50;4933531;29;20671;-74
2021/07/25 09:07:25;;;;;;;11.82;10.63;;;;;;;25.47;92.20;100236.63;4942084;29;20608;-73
2021/07/25 09:09:55;;;;;;;10.77;9.77;;;;;;;25.79;90.53;100237.81;4951909;28;20254;-74
2021/07/25 09:12:23;;;;;;;11.73;10.43;;;;;;;25.22;90.12;100243.09;4941025;28;20231;-73
2021/07/25 09:14:56;;;;;;;11.35;10.25;;;;;;;25.64;89.55;100236.03;4934381;29;20219;-75
2021/07/25 09:17:22;;;;;;;12.30;9.90;;;;;;;25.68;87.99;100239.69;4925281;29;20223;-75
2021/07/25 09:20:17;;;;;;;10.57;9.57;;;;;;;25.69;87.03;100227.34;4936137;29;20191;-73
2021/07/25 09:22:49;;;;;;;11.07;10.07;;;;;;;26.06;86.67;100228.88;4933283;29;20279;-75
2021/07/25 09:25:22;;;;;;;10.88;9.77;;;;;;;26.29;84.08;100223.97;4948693;28;20219;-73
2021/07/25 09:27:57;;;;;;;10.32;9.43;;;;;;;26.55;83.48;100235.69;4958778;28;20191;-74
2021/07/25 09:30:27;;;;;;;10.80;9.73;;;;;;;26.86;78.56;100239.50;4967691;28;20278;-74
2021/07/25 09:32:53;;;;;;;10.43;9.38;;;;;;;26.98;81.98;100230.81;4926578;29;20672;-74
2021/07/25 09:35:28;;;;;;;10.57;9.68;;;;;;;27.16;85.74;100231.66;4932450;28;20218;-75
2021/07/25 09:37:57;;;;;;;11.15;10.02;;;;;;;26.71;83.11;100229.41;4942278;29;20277;-74
2021/07/25 09:40:27;;;;;;;10.25;9.25;;;;;;;26.64;79.00;100230.56;4936491;28;20223;-74
2021/07/25 09:43:12;;;;;;;10.52;9.13;;;;;;;26.98;76.82;100230.81;4920179;29;20634;-74
2021/07/25 09:45:50;;;;;;;10.70;9.70;;;;;;;26.51;79.09;100238.44;4916619;29;20709;-74
2021/07/25 09:48:22;;;;;;;10.68;9.73;;;;;;;26.36;83.11;100227.59;4945217;29;20191;-73
2021/07/25 09:50:51;;;;;;;10.35;9.45;;;;;;;26.55;81.94;100224.53;4951657;28;20226;-74
2021/07/25 09:53:23;;;;;;;10.68;9.68;;;;;;;27.11;79.96;100232.84;4925746;29;20210;-72
2021/07/25 09:55:49;;;;;;;10.80;9.77;;;;;;;27.34;75.53;100233.34;4916257;29;20234;-74
2021/07/25 09:58:14;;;;;;;10.05;9.10;;;;;;;27.71;72.97;100220.72;4943450;29;20187;-76
2021/07/25 10:00:41;;;;;;;9.50;8.60;;;;;;;27.78;76.32;100223.50;4935188;29;20585;-73
2021/07/25 10:03:21;;;;;;;9.90;9.00;;;;;;;27.75;72.56;100223.53;4944539;28;20191;-74
2021/07/25 10:05:51;;;;;;;9.77;8.88;;;;;;;27.87;70.70;100217.53;4919906;29;20227;-75
2021/07/25 10:08:17;;;;;;;9.55;8.48;;;;;;;27.51;68.26;100208.31;4929044;29;20221;-74
2021/07/25 10:10:49;;;;;;;8.90;8.13;;;;;;;27.82;69.82;100221.53;4939412;29;20229;-74
2021/07/25 10:13:16;;;;;;;8.63;7.78;;;;;;;27.92;69.10;100215.16;4921021;29;20752;-74
2021/07/25 10:15:42;;;;;;;8.52;7.55;;;;;;;27.89;62.67;100221.53;4904541;29;20321;-75
2021/07/25 10:18:10;;;;;;;9.57;7.50;;;;;;;27.76;63.00;100222.31;4939584;29;20188;-73
2021/07/25 10:20:36;;;;;;;8.52;7.72;;;;;;;27.52;69.82;100223.84;4922788;29;20602;-74
2021/07/25 10:23:03;;;;;;;9.45;8.52;;;;;;;28.06;66.83;100232.78;4950881;29;20191;-74
2021/07/25 10:25:29;;;;;;;9.35;8.45;;;;;;;27.87;67.21;100223.94;4904786;28;20235;-73
2021/07/25 10:27:57;;;;;;;8.93;8.02;;;;;;;27.85;65.97;100217.94;4907576;29;20678;-73
2021/07/25 10:30:23;;;;;;;8.30;7.50;;;;;;;28.09;69.44;100217.97;4939553;28;20223;-74
2021/07/25 10:32:52;;;;;;;7.28;6.03;;;;;;;28.05;56.71;100224.78;4937559;29;20195;-76
2021/07/25 10:35:18;;;;;;;6.68;6.07;;;;;;;28.12;59.03;100216.41;4935804;28;20697;-73
2021/07/25 10:37:46;;;;;;;7.03;6.43;;;;;;;28.05;59.94;100210.81;4935861;29;20191;-74
2021/07/25 10:40:12;;;;;;;7.50;6.85;;;;;;;28.42;56.71;100209.97;4938702;28;20199;-74
2021/07/25 10:42:50;;;;;;;7.25;6.55;;;;;;;28.25;55.76;100212.00;4909056;29;20323;-74
2021/07/25 10:45:19;;;;;;;6.90;6.20;;;;;;;28.27;54.67;100211.19;4922457;28;20200;-73
2021/07/25 10:47:46;;;;;;;6.22;5.72;;;;;;;28.58;55.40;100215.16;4919541;29;20271;-74
2021/07/25 10:50:18;;;;;;;6.55;5.95;;;;;;;28.58;51.92;100213.16;4938054;28;20206;-72
2021/07/25 10:55:43;;;;;;;6.28;5.68;;;;;;;29.13;52.65;100199.03;4936926;28;20759;-73
2021/07/25 10:58:18;;;;;;;7.63;6.15;;;;;;;28.12;55.17;100203.22;4936188;29;20180;-72
2021/07/25 11:00:50;;;;;;;6.50;5.90;;;;;;;28.58;54.94;100196.38;4940393;28;20640;-74
2021/07/25 11:03:27;;;;;;;6.68;6.07;;;;;;;28.82;52.91;100199.13;4953817;28;20570;-72
2021/07/25 11:06:05;;;;;;;7.25;6.55;;;;;;;28.62;52.75;100202.78;4950898;28;20318;-72
2021/07/25 11:08:43;;;;;;;7.32;6.63;;;;;;;28.68;55.61;100199.19;4921431;29;20266;-72
2021/07/25 11:11:36;;;;;;;6.65;6.05;;;;;;;28.69;54.97;100205.56;4952084;28;20641;-72
2021/07/25 11:14:05;;;;;;;7.65;6.85;;;;;;;28.94;54.54;100207.09;4930053;29;20797;-73
2021/07/25 11:16:31;;;;;;;7.47;6.82;;;;;;;29.10;53.23;100202.66;4903938;29;20223;-74